Terminal Aerodrome Forecast
Issued by NWS

Home | Current Version | Previous Version | Graphics & Text | Print | Product List | Glossary On
Versions: 1 2 3 4 5 6 7 8 9 10 11 12 13 14 15 16 17 18 19 20 21 22 23 24 25 26 27 28 29 30 31 32 33 34 35 36 37 38 39 40 41 42 43 44 45 46 47 48 49 50
000
FTUS43 KLOT 261123
TAFGYY
TAF
KGYY 261123Z 2612/2712 18011KT P6SM BKN010
      TEMPO 2612/2615 OVC008
     FM261600 17012G18KT 6SM -SHRA SCT012 OVC030
      TEMPO 2617/2620 3SM TSRA OVC020CB
     FM262300 21014G22KT P6SM SCT020 BKN035
     FM270500 23011KT P6SM SCT035 BKN250=

USA.gov is the U.S. government's official web portal to all federal, state and local government web resources and services.